Time;durP1;ratioP1;P1;durP2;ratioP2;P2;SDS_P1;SDS_P2;PMS_P1;PMS_P2;Temp;Humidity;BMP_temperature;BMP_pressure;BME280_temperature;BME280_humidity;BME280_pressure;Samples;Min_cycle;Max_cycle;Signal;HPM_P1;HPM_P2
2024/03/29 00:00:47;;;;;;;0.00;0.00;;;;;;;5.60;100.00;97073.00;4805880;29;20053;-76
2024/03/29 00:03:17;;;;;;;0.00;0.00;;;;;;;5.67;100.00;97067.91;4800003;29;20053;-76
2024/03/29 00:05:42;;;;;;;0.00;0.00;;;;;;;5.56;100.00;97045.72;4822895;29;20051;-76
2024/03/29 00:08:08;;;;;;;0.00;0.00;;;;;;;5.66;100.00;97058.16;4826075;29;20397;-77
2024/03/29 00:10:33;;;;;;;0.00;0.00;;;;;;;5.63;100.00;97039.81;4792960;29;20038;-76
2024/03/29 00:13:25;;;;;;;0.00;0.00;;;;;;;5.64;100.00;97041.44;4809878;29;20465;-76
2024/03/29 00:15:53;;;;;;;0.00;0.00;;;;;;;5.60;100.00;97024.19;4806340;29;20443;-76
2024/03/29 00:18:18;;;;;;;0.00;0.00;;;;;;;5.91;100.00;97061.25;4818910;29;20121;-77
2024/03/29 00:20:44;;;;;;;0.10;0.10;;;;;;;5.99;100.00;97055.06;4826300;29;21804;-76
2024/03/29 00:23:10;;;;;;;0.00;0.00;;;;;;;6.08;100.00;97050.44;4809407;29;20067;-77
2024/03/29 00:25:35;;;;;;;0.10;0.10;;;;;;;6.04;100.00;97044.03;4814506;29;20803;-77
2024/03/29 00:28:01;;;;;;;0.00;0.00;;;;;;;6.01;100.00;97041.97;4814253;29;20030;-77
2024/03/29 00:30:26;;;;;;;0.00;0.00;;;;;;;5.95;100.00;97040.50;4787808;29;20038;-77
2024/03/29 00:32:52;;;;;;;0.10;0.10;;;;;;;5.98;100.00;97050.75;4784822;29;20034;-76
2024/03/29 00:35:17;;;;;;;0.00;0.00;;;;;;;5.93;100.00;97037.31;4805026;29;20038;-77
2024/03/29 00:37:45;;;;;;;0.10;0.10;;;;;;;5.93;100.00;97042.75;4819504;29;20030;-76
2024/03/29 00:40:21;;;;;;;;;;;;;;;;;;;;;
2024/03/29 00:42:46;;;;;;;0.00;0.00;;;;;;;5.74;100.00;97046.56;4830017;29;20038;-77
2024/03/29 00:45:25;;;;;;;;;;;;;;;;;;;;;
2024/03/29 00:47:51;;;;;;;0.00;0.00;;;;;;;5.86;100.00;97074.97;4838847;29;20039;-75
2024/03/29 00:50:16;;;;;;;0.10;0.10;;;;;;;5.81;100.00;97065.06;4804605;29;20129;-75
2024/03/29 00:52:42;;;;;;;0.00;0.00;;;;;;;5.79;100.00;97058.38;4822071;29;20405;-75
2024/03/29 00:55:08;;;;;;;0.00;0.00;;;;;;;5.76;100.00;97055.16;4788356;29;20039;-75
2024/03/29 00:57:33;;;;;;;0.00;0.00;;;;;;;5.95;100.00;97078.47;4795344;29;20069;-74
2024/03/29 00:59:58;;;;;;;0.00;0.00;;;;;;;5.90;100.00;97073.22;4831438;29;20460;-74
2024/03/29 01:02:24;;;;;;;0.00;0.00;;;;;;;5.93;100.00;97064.44;4804190;29;20039;-75
2024/03/29 01:04:59;;;;;;;0.10;0.10;;;;;;;6.04;100.00;97073.88;4814811;29;20026;-76
2024/03/29 01:07:25;;;;;;;0.00;0.00;;;;;;;5.96;100.00;97063.81;4810430;29;20038;-76
2024/03/29 01:09:51;;;;;;;0.10;0.10;;;;;;;5.95;100.00;97062.19;4798046;29;20088;-76
2024/03/29 01:12:16;;;;;;;0.10;0.10;;;;;;;5.90;100.00;97059.66;4815729;29;20539;-76
2024/03/29 01:14:44;;;;;;;0.00;0.00;;;;;;;5.94;100.00;97063.31;4811904;29;20090;-76
2024/03/29 01:17:17;;;;;;;0.00;0.00;;;;;;;6.02;100.00;97073.41;4800251;29;20042;-75
2024/03/29 01:19:45;;;;;;;0.00;0.00;;;;;;;5.97;100.00;97053.75;4804546;29;20402;-76
2024/03/29 01:22:10;;;;;;;0.00;0.00;;;;;;;6.01;100.00;97069.09;4794995;29;20483;-75
2024/03/29 01:24:36;;;;;;;0.00;0.00;;;;;;;6.11;100.00;97076.13;4820286;29;20087;-75
2024/03/29 01:27:11;;;;;;;;;;;;;;;;;;;;;
2024/03/29 01:29:42;;;;;;;0.00;0.00;;;;;;;5.89;100.00;97052.63;4809817;29;20018;-73
2024/03/29 01:32:07;;;;;;;0.00;0.00;;;;;;;5.94;100.00;97058.69;4799019;29;20029;-76
2024/03/29 01:34:33;;;;;;;0.00;0.00;;;;;;;5.83;100.00;97040.34;4815378;29;20702;-76
2024/03/29 01:37:03;;;;;;;0.00;0.00;;;;;;;5.77;100.00;97029.66;4787706;29;20051;-75
2024/03/29 01:39:33;;;;;;;0.00;0.00;;;;;;;5.76;100.00;97019.91;4800886;29;20034;-75
2024/03/29 01:41:59;;;;;;;0.00;0.00;;;;;;;5.62;100.00;97013.81;4820152;29;20034;-75
2024/03/29 01:44:32;;;;;;;0.00;0.00;;;;;;;5.67;100.00;97032.66;4806871;29;20042;-75
2024/03/29 01:46:57;;;;;;;0.00;0.00;;;;;;;5.69;100.00;97026.94;4790738;29;20023;-76
2024/03/29 01:49:40;;;;;;;;;;;;;;;;;;;;;
2024/03/29 01:52:06;;;;;;;0.00;0.00;;;;;;;5.69;100.00;97038.56;4807931;29;20019;-76
2024/03/29 01:54:35;;;;;;;0.00;0.00;;;;;;;5.63;100.00;97022.78;4793245;29;20113;-74
2024/03/29 01:57:06;;;;;;;0.00;0.00;;;;;;;5.64;100.00;97040.66;4800305;29;20050;-76
2024/03/29 01:59:35;;;;;;;0.10;0.10;;;;;;;5.44;100.00;97021.13;4816854;29;20058;-76
2024/03/29 02:02:04;;;;;;;0.00;0.00;;;;;;;5.48;100.00;97032.16;4811766;29;20041;-76
2024/03/29 02:05:00;;;;;;;0.00;0.00;;;;;;;5.38;100.00;97039.44;4813824;29;20121;-76
2024/03/29 02:07:25;;;;;;;0.10;0.10;;;;;;;5.44;100.00;97061.00;4810751;29;20401;-76
2024/03/29 02:09:51;;;;;;;0.00;0.00;;;;;;;5.27;100.00;97049.00;4787002;29;20057;-75
2024/03/29 02:12:17;;;;;;;0.03;0.03;;;;;;;5.31;100.00;97058.06;4814814;29;20034;-76
2024/03/29 02:14:42;;;;;;;0.00;0.00;;;;;;;5.25;100.00;97053.91;4798416;29;21054;-75
2024/03/29 02:17:16;;;;;;;0.10;0.10;;;;;;;5.17;100.00;97055.50;4800804;29;20063;-75
2024/03/29 02:19:41;;;;;;;0.10;0.10;;;;;;;5.01;100.00;97036.16;4804088;29;20026;-75
2024/03/29 02:22:09;;;;;;;0.00;0.00;;;;;;;5.22;100.00;97079.72;4824256;29;20068;-74
2024/03/29 02:24:35;;;;;;;0.10;0.10;;;;;;;5.02;100.00;97054.00;4813683;29;20030;-75
2024/03/29 02:27:01;;;;;;;0.00;0.00;;;;;;;5.13;100.00;97081.59;4821372;29;20030;-75
2024/03/29 02:29:30;;;;;;;0.00;0.00;;;;;;;5.02;100.00;97059.41;4788850;29;20453;-75
2024/03/29 02:32:05;;;;;;;0.00;0.00;;;;;;;5.13;100.00;97080.81;4786478;29;20217;-76
2024/03/29 02:34:33;;;;;;;0.00;0.00;;;;;;;5.24;100.00;97093.75;4806842;29;20071;-74
2024/03/29 02:37:08;;;;;;;0.00;0.00;;;;;;;5.10;100.00;97070.59;4801644;29;20075;-76
2024/03/29 02:39:34;;;;;;;0.00;0.00;;;;;;;5.02;100.00;97059.41;4798515;29;20050;-76
2024/03/29 02:42:09;;;;;;;0.10;0.10;;;;;;;5.19;100.00;97074.13;4824286;29;20069;-74
2024/03/29 02:44:50;;;;;;;0.10;0.10;;;;;;;4.83;100.00;97023.63;4800188;29;20043;-74
2024/03/29 02:47:28;;;;;;;;;;;;;;;;;;;;;
2024/03/29 02:49:56;;;;;;;0.00;0.00;;;;;;;5.30;100.00;97091.72;4814560;29;20565;-75
2024/03/29 02:52:29;;;;;;;0.00;0.00;;;;;;;5.20;100.00;97083.88;4807462;29;20073;-74
2024/03/29 02:54:57;;;;;;;0.00;0.00;;;;;;;5.32;100.00;97084.06;4814417;29;20470;-75
2024/03/29 02:57:22;;;;;;;0.00;0.00;;;;;;;5.29;100.00;97065.72;4801208;29;20038;-76
2024/03/29 02:59:50;;;;;;;0.00;0.00;;;;;;;5.46;100.00;97067.72;4786301;29;20048;-76
2024/03/29 03:02:16;;;;;;;0.00;0.00;;;;;;;5.57;100.00;97068.19;4796729;29;20042;-76
2024/03/29 03:04:41;;;;;;;0.00;0.00;;;;;;;5.73;100.00;97082.91;4801171;29;20042;-75
2024/03/29 03:12:35;;;;;;;0.05;0.05;;;;;;;5.70;100.00;97105.22;4808615;29;20049;-77
2024/03/29 03:15:00;;;;;;;0.00;0.00;;;;;;;5.71;100.00;97106.84;4805952;29;20145;-76
2024/03/29 03:17:28;;;;;;;0.00;0.00;;;;;;;5.55;100.00;97079.34;4803743;29;20030;-75
2024/03/29 03:19:54;;;;;;;0.00;0.00;;;;;;;5.60;100.00;97089.25;4791270;29;20049;-75
2024/03/29 03:22:37;;;;;;;0.00;0.00;;;;;;;5.48;100.00;97075.53;4798882;29;20026;-75
2024/03/29 03:25:08;;;;;;;0.00;0.00;;;;;;;5.49;100.00;97072.50;4812825;29;20034;-76
2024/03/29 03:27:33;;;;;;;0.00;0.00;;;;;;;5.60;100.00;97073.00;4796057;29;20040;-75
2024/03/29 03:29:59;;;;;;;0.00;0.00;;;;;;;5.46;100.00;97045.22;4776962;29;20030;-76
2024/03/29 03:32:27;;;;;;;0.10;0.10;;;;;;;5.75;100.00;97067.13;4801635;29;20038;-76
2024/03/29 03:35:18;;;;;;;0.00;0.00;;;;;;;5.81;100.00;97069.69;4817230;29;20030;-76
2024/03/29 03:37:44;;;;;;;0.00;0.00;;;;;;;5.85;100.00;97062.50;4815479;29;20026;-77
2024/03/29 03:40:22;;;;;;;;;;;;;;;;;;;;;
2024/03/29 03:42:48;;;;;;;0.10;0.10;;;;;;;5.98;100.00;97075.16;4804731;29;20015;-76
2024/03/29 03:45:14;;;;;;;0.00;0.00;;;;;;;6.05;100.00;97091.75;4806929;29;20042;-77
2024/03/29 03:47:39;;;;;;;0.00;0.00;;;;;;;6.00;100.00;97074.84;4787890;29;20118;-75
2024/03/29 03:50:12;;;;;;;0.00;0.00;;;;;;;6.13;100.00;97089.38;4791350;29;20038;-76
2024/03/29 03:52:40;;;;;;;0.00;0.00;;;;;;;6.35;100.00;97119.09;4783153;29;20035;-76
2024/03/29 03:55:06;;;;;;;0.00;0.00;;;;;;;6.33;100.00;97096.88;4799823;29;20098;-76
2024/03/29 03:57:33;;;;;;;0.00;0.00;;;;;;;6.31;100.00;97085.56;4797158;29;20421;-76
2024/03/29 04:00:17;;;;;;;0.00;0.00;;;;;;;6.51;100.00;97105.00;4811846;29;20378;-76
2024/03/29 04:02:57;;;;;;;0.10;0.10;;;;;;;6.32;100.00;97076.28;4797670;29;20027;-76
2024/03/29 04:05:22;;;;;;;0.10;0.10;;;;;;;6.23;100.00;97040.22;4817135;29;20054;-75
2024/03/29 04:07:48;;;;;;;0.00;0.00;;;;;;;6.33;100.00;97072.44;4817174;29;20123;-75
2024/03/29 04:10:14;;;;;;;0.00;0.00;;;;;;;6.36;100.00;97087.31;4804419;29;20177;-75
2024/03/29 04:12:58;;;;;;;0.10;0.10;;;;;;;6.23;100.00;97061.91;4803697;29;20034;-76
2024/03/29 04:15:34;;;;;;;0.00;0.00;;;;;;;6.26;100.00;97058.56;4813219;29;20034;-76
2024/03/29 04:18:00;;;;;;;0.10;0.10;;;;;;;6.36;100.00;97085.38;4802943;29;20040;-75
2024/03/29 04:20:25;;;;;;;0.00;0.00;;;;;;;6.22;100.00;97082.03;4807234;29;20461;-74
2024/03/29 04:23:01;;;;;;;;;;;;;;;;;;;;;
2024/03/29 04:25:34;;;;;;;0.00;0.00;;;;;;;6.03;100.00;97069.59;4813331;29;20048;-74
2024/03/29 04:28:02;;;;;;;0.00;0.00;;;;;;;5.96;100.00;97071.94;4821106;29;20035;-76
2024/03/29 04:30:28;;;;;;;0.10;0.10;;;;;;;6.03;100.00;97091.28;4811210;29;20062;-75
2024/03/29 04:32:53;;;;;;;0.00;0.00;;;;;;;6.05;100.00;97094.47;4809835;29;20056;-76
2024/03/29 04:35:18;;;;;;;0.00;0.00;;;;;;;5.99;100.00;97084.91;4807787;29;20474;-75
2024/03/29 04:37:54;;;;;;;;;;;;;;;;;;;;;
2024/03/29 04:40:22;;;;;;;0.00;0.00;;;;;;;5.84;100.00;97072.56;4810339;29;20486;-75
2024/03/29 04:42:49;;;;;;;0.00;0.00;;;;;;;5.95;100.00;97105.59;4809373;29;20034;-75
2024/03/29 04:45:15;;;;;;;0.10;0.10;;;;;;;5.95;100.00;97100.16;4792388;29;20040;-75
2024/03/29 04:47:40;;;;;;;0.00;0.00;;;;;;;6.09;100.00;97090.00;4806042;29;20039;-74
2024/03/29 04:50:09;;;;;;;0.00;0.00;;;;;;;6.17;100.00;97076.78;4789388;29;20045;-74
2024/03/29 04:52:41;;;;;;;0.10;0.10;;;;;;;6.38;100.00;97096.72;4815989;29;20030;-75
2024/03/29 04:55:07;;;;;;;0.00;0.00;;;;;;;6.50;100.00;97114.25;4801285;29;20738;-74
2024/03/29 04:57:32;;;;;;;0.10;0.10;;;;;;;6.43;100.00;97088.41;4810142;29;20035;-73
2024/03/29 04:59:58;;;;;;;0.00;0.00;;;;;;;6.45;100.00;97075.34;4805172;29;20038;-74
2024/03/29 05:02:26;;;;;;;0.00;0.00;;;;;;;6.63;100.00;97097.81;4804974;29;20555;-75
2024/03/29 05:05:02;;;;;;;0.00;0.00;;;;;;;6.66;100.00;97090.97;4807412;29;20436;-75
2024/03/29 05:07:36;;;;;;;0.00;0.00;;;;;;;6.73;100.00;97102.13;4811557;29;20401;-75
2024/03/29 05:10:06;;;;;;;;;;;;;;;6.82;100.00;97110.25;4787663;29;20060;-74
2024/03/29 05:12:34;;;;;;;0.00;0.00;;;;;;;6.80;100.00;97096.19;4809090;29;19917;-75
2024/03/29 05:14:59;;;;;;;0.10;0.10;;;;;;;6.69;100.00;97086.78;4798966;29;20137;-75
2024/03/29 05:17:26;;;;;;;0.00;0.00;;;;;;;6.66;100.00;97084.72;4817131;29;20200;-74
2024/03/29 05:19:55;;;;;;;0.00;0.00;;;;;;;6.80;100.00;97107.88;4818282;29;20037;-75
2024/03/29 05:22:46;;;;;;;0.00;0.00;;;;;;;6.69;100.00;97095.75;4797563;29;20477;-74
2024/03/29 05:25:14;;;;;;;0.00;0.00;;;;;;;6.51;100.00;97084.09;4805182;29;20529;-76
2024/03/29 05:28:07;;;;;;;;;;;;;;;;;;;;;
2024/03/29 05:30:43;;;;;;;;;;;;;;;;;;;;;
2024/03/29 05:33:14;;;;;;;0.00;0.00;;;;;;;6.49;100.00;97085.53;4812527;29;20042;-75
2024/03/29 05:35:39;;;;;;;0.00;0.00;;;;;;;6.52;100.00;97091.13;4810897;29;20043;-75
2024/03/29 05:38:10;;;;;;;0.00;0.00;;;;;;;6.53;100.00;97092.72;4815303;29;20033;-77
2024/03/29 05:40:37;;;;;;;0.00;0.00;;;;;;;6.71;100.00;97117.94;4799743;29;20103;-76
2024/03/29 05:43:03;;;;;;;0.00;0.00;;;;;;;6.54;100.00;97077.22;4793526;29;20031;-76
2024/03/29 05:45:30;;;;;;;0.00;0.00;;;;;;;6.79;100.00;97111.69;4832547;29;20125;-77
2024/03/29 05:47:57;;;;;;;0.00;0.00;;;;;;;6.70;100.00;97101.97;4817882;29;20035;-77
2024/03/29 05:50:24;;;;;;;0.00;0.00;;;;;;;6.72;100.00;97078.81;4801731;29;20529;-77
2024/03/29 05:53:01;;;;;;;;;;;;;;;;;;;;;
2024/03/29 05:55:26;;;;;;;0.00;0.00;;;;;;;6.83;100.00;97095.53;4819381;29;20040;-77
2024/03/29 05:57:52;;;;;;;0.10;0.10;;;;;;;6.79;100.00;97081.81;4824506;29;20022;-78
2024/03/29 06:00:18;;;;;;;0.00;0.00;;;;;;;6.87;100.00;97082.13;4786941;29;20046;-76
2024/03/29 06:02:48;;;;;;;0.00;0.00;;;;;;;6.98;100.00;97094.25;4814353;29;20030;-76
2024/03/29 06:05:14;;;;;;;0.00;0.00;;;;;;;6.90;100.00;97078.75;4807327;29;20049;-76
2024/03/29 06:07:39;;;;;;;0.10;0.10;;;;;;;7.17;100.00;97110.19;4836035;29;20561;-76
2024/03/29 06:10:05;;;;;;;0.00;0.00;;;;;;;7.10;100.00;97088.94;4816620;29;20404;-77
2024/03/29 06:12:34;;;;;;;0.00;0.00;;;;;;;7.21;100.00;97094.00;4831279;29;20442;-77
2024/03/29 06:17:58;;;;;;;0.00;0.00;;;;;;;7.03;100.00;97096.00;4814895;29;20455;-76
2024/03/29 06:20:24;;;;;;;0.00;0.00;;;;;;;6.90;100.00;97100.50;4821742;29;20499;-76
2024/03/29 06:22:54;;;;;;;0.00;0.00;;;;;;;6.79;100.00;97100.84;4819883;29;20030;-77
2024/03/29 06:25:23;;;;;;;0.00;0.00;;;;;;;6.78;100.00;97098.44;4813074;29;20121;-76
2024/03/29 06:27:56;;;;;;;0.00;0.00;;;;;;;6.80;100.00;97102.44;4791405;29;20026;-77
2024/03/29 06:30:21;;;;;;;0.10;0.10;;;;;;;6.86;100.00;97104.97;4824078;29;20044;-77
2024/03/29 06:32:54;;;;;;;0.00;0.00;;;;;;;6.76;100.00;97090.63;4823488;29;20023;-77
2024/03/29 06:35:21;;;;;;;0.00;0.00;;;;;;;6.87;100.00;97107.38;4830383;29;20128;-77
2024/03/29 06:37:57;;;;;;;0.00;0.00;;;;;;;6.90;100.00;97097.78;4826793;29;20140;-77
2024/03/29 06:40:22;;;;;;;0.00;0.00;;;;;;;6.87;100.00;97109.28;4812093;29;20042;-78
2024/03/29 06:42:51;;;;;;;0.00;0.00;;;;;;;6.79;100.00;97100.84;4820056;29;20037;-76
2024/03/29 06:45:16;;;;;;;0.00;0.00;;;;;;;6.80;100.00;97086.16;4835044;29;20032;-77
2024/03/29 06:47:47;;;;;;;0.00;0.00;;;;;;;6.95;100.00;97109.28;4839595;29;20030;-77
2024/03/29 06:50:12;;;;;;;0.00;0.00;;;;;;;6.89;100.00;97098.88;4834568;29;20117;-77
2024/03/29 06:52:38;;;;;;;0.00;0.00;;;;;;;7.01;100.00;97112.63;4808691;29;20117;-76
2024/03/29 06:55:06;;;;;;;0.00;0.00;;;;;;;6.91;100.00;97102.88;4818721;29;20052;-79
2024/03/29 07:05:21;;;;;;;0.00;0.00;;;;;;;6.82;100.00;97102.91;4768912;29;20123;-80
2024/03/29 07:07:47;;;;;;;0.10;0.10;;;;;;;6.87;100.00;97112.78;4758686;30;20538;-76
2024/03/29 07:10:13;;;;;;;0.10;0.10;;;;;;;7.05;100.00;97135.28;4823214;29;20097;-77
2024/03/29 07:12:40;;;;;;;0.00;0.00;;;;;;;7.02;100.00;97138.66;4830603;29;20031;-77
2024/03/29 07:15:07;;;;;;;0.00;0.00;;;;;;;6.92;100.00;97130.84;4820096;29;20477;-80
2024/03/29 07:17:44;;;;;;;0.00;0.00;;;;;;;6.86;100.00;97113.13;4830526;29;20101;-79
2024/03/29 07:23:45;;;;;;;0.00;0.00;;;;;;;7.52;100.00;97169.88;4830247;29;20445;-77
2024/03/29 07:26:11;;;;;;;0.00;0.00;;;;;;;7.61;100.00;97169.84;4819509;29;20365;-77
2024/03/29 07:28:44;;;;;;;0.10;0.10;;;;;;;7.58;100.00;97146.81;4823592;29;20078;-77
2024/03/29 07:31:21;;;;;;;0.00;0.00;;;;;;;7.84;100.00;97149.41;4834546;29;20033;-77
2024/03/29 07:33:52;;;;;;;0.00;0.00;;;;;;;7.77;100.00;97151.84;4827834;29;20041;-76
2024/03/29 07:36:18;;;;;;;0.00;0.00;;;;;;;7.80;100.00;97153.91;4823697;29;20045;-78
2024/03/29 07:39:03;;;;;;;0.00;0.00;;;;;;;8.01;100.00;97191.25;4826053;29;20030;-77
2024/03/29 07:41:31;;;;;;;0.10;0.10;;;;;;;8.19;100.00;97200.09;4812684;29;20034;-79
2024/03/29 07:44:13;;;;;;;;;;;;;;;;;;;;;
2024/03/29 07:46:40;;;;;;;0.00;0.00;;;;;;;8.51;100.00;97204.13;4837210;29;20036;-77
2024/03/29 07:49:08;;;;;;;0.00;0.00;;;;;;;8.46;100.00;97190.69;4815790;29;20090;-77
2024/03/29 07:51:44;;;;;;;0.10;0.10;;;;;;;8.51;100.00;97201.38;4837738;29;20086;-78
2024/03/29 07:54:13;;;;;;;0.00;0.00;;;;;;;8.70;100.00;97216.47;4825215;29;20060;-77
2024/03/29 07:57:11;;;;;;;;;;;;;;;;;;;;;
2024/03/29 07:59:39;;;;;;;0.00;0.00;;;;;;;8.64;100.00;97217.78;4831328;29;20670;-78
2024/03/29 08:02:05;;;;;;;0.00;0.00;;;;;;;8.32;100.00;97193.63;4805922;29;20092;-77
2024/03/29 08:04:35;;;;;;;0.00;0.00;;;;;;;8.20;100.00;97183.44;4825129;29;20034;-77
2024/03/29 08:07:00;;;;;;;0.00;0.00;;;;;;;8.38;100.00;97210.56;4821405;29;20039;-76
2024/03/29 08:09:29;;;;;;;0.00;0.00;;;;;;;8.54;100.00;97222.50;4825486;29;20030;-77
2024/03/29 08:12:41;;;;;;;0.00;0.00;;;;;;;8.41;100.00;97228.16;4830711;29;20040;-77
2024/03/29 08:15:27;;;;;;;0.00;0.00;;;;;;;8.36;100.00;97237.31;4831557;29;20481;-76
2024/03/29 08:17:52;;;;;;;0.10;0.10;;;;;;;8.40;100.00;97246.44;4833687;29;20042;-76
2024/03/29 08:20:19;;;;;;;0.10;0.10;;;;;;;8.37;100.00;97249.81;4832193;29;20037;-76
2024/03/29 08:22:44;;;;;;;0.10;0.10;;;;;;;8.50;100.00;97251.53;4828953;29;20124;-76
2024/03/29 08:25:09;;;;;;;0.00;0.00;;;;;;;8.71;100.00;97264.38;4822725;29;20125;-77
2024/03/29 08:27:35;;;;;;;0.00;0.00;;;;;;;8.70;100.00;97255.41;4805881;29;20711;-76
2024/03/29 08:30:00;;;;;;;0.00;0.00;;;;;;;8.83;100.00;97264.44;4824955;29;20026;-77
2024/03/29 08:32:26;;;;;;;0.00;0.00;;;;;;;8.97;100.00;97263.41;4816076;29;20412;-76
2024/03/29 08:34:52;;;;;;;0.00;0.00;;;;;;;9.24;100.00;97273.75;4842765;29;20036;-77
2024/03/29 08:37:17;;;;;;;0.00;0.00;;;;;;;9.60;100.00;97275.00;4837259;29;20447;-78
2024/03/29 08:39:45;;;;;;;0.00;0.00;;;;;;;9.76;100.00;97266.19;4830778;29;20042;-77
2024/03/29 08:42:17;;;;;;;0.00;0.00;;;;;;;10.75;100.00;97283.44;4806450;29;20579;-79
2024/03/29 08:44:42;;;;;;;0.00;0.00;;;;;;;11.29;100.00;97268.59;4831207;29;20042;-77
2024/03/29 08:47:11;;;;;;;0.00;0.00;;;;;;;12.69;100.00;97306.25;4825257;29;20131;-77
2024/03/29 08:49:36;;;;;;;0.00;0.00;;;;;;;12.50;100.00;97290.50;4835108;29;20061;-76
2024/03/29 08:52:04;;;;;;;0.00;0.00;;;;;;;13.38;100.00;97295.63;4811220;29;20493;-76
2024/03/29 08:54:30;;;;;;;0.00;0.00;;;;;;;14.17;100.00;97299.06;4803731;29;20632;-77
2024/03/29 08:56:56;;;;;;;0.00;0.00;;;;;;;13.13;100.00;97291.50;4782563;29;20038;-76
2024/03/29 08:59:21;;;;;;;0.00;0.00;;;;;;;12.51;100.00;97289.34;4823980;29;20034;-77
2024/03/29 09:01:50;;;;;;;0.10;0.10;;;;;;;12.23;100.00;97306.69;4828317;29;20472;-77
2024/03/29 09:04:16;;;;;;;0.00;0.00;;;;;;;12.82;100.00;97309.66;4820854;29;20486;-77
2024/03/29 09:06:41;;;;;;;0.00;0.00;;;;;;;13.39;100.00;97291.72;4806705;29;20050;-76
2024/03/29 09:09:07;;;;;;;0.00;0.00;;;;;;;13.86;100.00;97287.13;4809342;29;20045;-77
2024/03/29 09:11:33;;;;;;;0.00;0.00;;;;;;;14.83;100.00;97299.75;4800142;29;20033;-77
2024/03/29 09:13:59;;;;;;;0.00;0.00;;;;;;;17.66;100.00;97301.19;4816546;29;21478;-77
2024/03/29 09:16:25;;;;;;;0.00;0.00;;;;;;;20.50;100.00;97299.84;4818732;29;20064;-77
2024/03/29 09:18:51;;;;;;;0.00;0.00;;;;;;;19.13;77.04;97306.09;4815365;29;20027;-76
2024/03/29 09:21:16;;;;;;;0.10;0.10;;;;;;;16.16;85.23;97292.28;4833427;29;20042;-76
2024/03/29 09:23:42;;;;;;;0.00;0.00;;;;;;;14.66;100.00;97305.78;4836913;29;20515;-76
2024/03/29 09:26:12;;;;;;;0.00;0.00;;;;;;;13.73;100.00;97305.72;4818731;29;20042;-78
2024/03/29 09:28:37;;;;;;;0.00;0.00;;;;;;;13.18;100.00;97313.19;4825044;29;20405;-77
2024/03/29 09:31:03;;;;;;;0.00;0.00;;;;;;;13.53;100.00;97310.41;4820686;29;20050;-77
2024/03/29 09:33:31;;;;;;;0.00;0.00;;;;;;;15.09;100.00;97311.91;4829597;29;20404;-77
2024/03/29 09:35:58;;;;;;;0.00;0.00;;;;;;;16.38;93.53;97322.81;4820771;29;20090;-77
2024/03/29 09:38:29;;;;;;;0.10;0.10;;;;;;;17.99;99.58;97305.66;4846851;29;20026;-78
2024/03/29 09:41:13;;;;;;;0.00;0.00;;;;;;;18.75;74.36;97305.69;4826969;29;20041;-79
2024/03/29 09:43:42;;;;;;;0.00;0.00;;;;;;;20.46;87.38;97302.69;4831727;29;20029;-75
2024/03/29 09:46:09;;;;;;;0.00;0.00;;;;;;;21.55;69.88;97313.56;4837509;29;20920;-76
2024/03/29 09:48:38;;;;;;;0.00;0.00;;;;;;;20.13;65.84;97329.06;4807775;29;20026;-75
2024/03/29 09:51:07;;;;;;;0.00;0.00;;;;;;;17.69;74.84;97325.28;4803817;29;20026;-75
2024/03/29 09:53:45;;;;;;;0.00;0.00;;;;;;;15.63;81.03;97333.84;4825233;29;20040;-75
2024/03/29 09:56:27;;;;;;;0.00;0.00;;;;;;;13.96;91.38;97337.94;4823778;29;20114;-79
2024/03/29 09:58:52;;;;;;;0.00;0.00;;;;;;;13.00;99.22;97321.03;4836964;29;20134;-74
2024/03/29 10:01:18;;;;;;;0.00;0.00;;;;;;;12.27;100.00;97323.25;4823456;29;20152;-74
2024/03/29 10:03:57;;;;;;;0.00;0.00;;;;;;;11.47;100.00;97328.50;4808413;29;20054;-75
2024/03/29 10:06:24;;;;;;;0.00;0.00;;;;;;;10.53;100.00;97342.09;4816988;29;20121;-75
2024/03/29 10:08:50;;;;;;;0.00;0.00;;;;;;;9.49;100.00;97363.88;4830459;29;20078;-75
2024/03/29 10:11:19;;;;;;;0.00;0.00;;;;;;;8.81;100.00;97359.34;4834888;29;20084;-76
2024/03/29 10:14:03;;;;;;;0.00;0.00;;;;;;;8.48;100.00;97351.00;4817120;29;20495;-75
2024/03/29 10:16:32;;;;;;;0.00;0.00;;;;;;;8.46;100.00;97367.69;4846545;29;20038;-75
2024/03/29 10:18:58;;;;;;;0.10;0.10;;;;;;;8.54;100.00;97366.84;4835993;29;20120;-76
2024/03/29 10:21:27;;;;;;;0.00;0.00;;;;;;;8.85;100.00;97357.56;4820492;29;20542;-76
2024/03/29 10:23:54;;;;;;;0.00;0.00;;;;;;;9.94;100.00;97371.31;4817933;29;20125;-74
2024/03/29 10:26:23;;;;;;;0.00;0.00;;;;;;;10.71;100.00;97328.19;4838354;29;20030;-77
2024/03/29 10:28:51;;;;;;;0.10;0.10;;;;;;;14.42;100.00;97368.19;4821113;29;20030;-76
2024/03/29 10:31:22;;;;;;;0.00;0.00;;;;;;;14.40;100.00;97358.75;4809787;29;20086;-77
2024/03/29 10:33:48;;;;;;;0.00;0.00;;;;;;;16.49;100.00;97367.84;4799224;29;20050;-75
2024/03/29 10:36:16;;;;;;;0.00;0.00;;;;;;;19.97;82.79;97348.94;4821378;29;20061;-77
2024/03/29 10:38:47;;;;;;;0.10;0.10;;;;;;;22.50;66.83;97392.63;4804105;29;20078;-75
2024/03/29 10:41:15;;;;;;;0.00;0.00;;;;;;;22.53;62.40;97391.00;4798854;29;20694;-75
2024/03/29 10:43:41;;;;;;;0.00;0.00;;;;;;;22.83;59.92;97365.88;4834671;29;20036;-75
2024/03/29 10:46:09;;;;;;;0.00;0.00;;;;;;;21.38;65.81;97371.72;4805255;29;20034;-75
2024/03/29 10:48:36;;;;;;;0.00;0.00;;;;;;;20.35;60.61;97374.88;4818049;29;20113;-74
2024/03/29 10:51:02;;;;;;;0.00;0.00;;;;;;;20.54;72.75;97370.00;4827262;29;20104;-74
2024/03/29 10:53:32;;;;;;;0.00;0.00;;;;;;;19.40;61.80;97383.97;4835576;29;20030;-74
2024/03/29 10:56:00;;;;;;;0.00;0.00;;;;;;;18.05;71.35;97361.38;4840708;29;20025;-76
2024/03/29 10:58:36;;;;;;;0.00;0.00;;;;;;;18.51;72.71;97374.47;4838581;29;20033;-73
2024/03/29 11:01:14;;;;;;;0.00;0.00;;;;;;;22.23;66.56;97384.25;4815983;29;20602;-74
2024/03/29 11:03:57;;;;;;;0.00;0.00;;;;;;;22.53;58.06;97391.00;4820799;29;20031;-74
2024/03/29 11:06:30;;;;;;;0.00;0.00;;;;;;;23.10;56.20;97379.00;4832518;29;20046;-74
2024/03/29 11:09:12;;;;;;;0.00;0.00;;;;;;;23.49;52.22;97382.28;4809536;29;20485;-76
2024/03/29 11:11:41;;;;;;;0.00;0.00;;;;;;;22.04;54.54;97371.78;4813012;29;20054;-74
2024/03/29 11:14:10;;;;;;;0.03;0.03;;;;;;;21.08;60.15;97381.53;4812937;29;20033;-73
2024/03/29 11:16:36;;;;;;;0.00;0.00;;;;;;;22.06;53.63;97403.53;4828865;29;20386;-75
2024/03/29 11:19:05;;;;;;;0.00;0.00;;;;;;;20.00;59.52;97382.19;4811855;29;20038;-73
2024/03/29 11:21:32;;;;;;;0.00;0.00;;;;;;;20.36;62.28;97403.44;4804221;29;20411;-74
2024/03/29 11:24:01;;;;;;;0.00;0.00;;;;;;;18.63;62.45;97399.00;4827408;29;20137;-73
2024/03/29 11:26:28;;;;;;;0.00;0.00;;;;;;;17.95;66.16;97416.22;4804362;29;20133;-73
2024/03/29 11:28:58;;;;;;;0.00;0.00;;;;;;;18.30;64.30;97397.38;4831749;29;20034;-74
2024/03/29 11:31:25;;;;;;;0.00;0.00;;;;;;;18.26;70.30;97399.34;4822802;29;20087;-74
2024/03/29 11:33:52;;;;;;;0.00;0.00;;;;;;;18.84;63.79;97386.38;4816346;29;20484;-74
2024/03/29 11:36:23;;;;;;;0.00;0.00;;;;;;;17.44;62.64;97381.97;4833198;29;20117;-74
2024/03/29 11:38:51;;;;;;;0.00;0.00;;;;;;;15.57;68.88;97382.16;4812103;29;20488;-74
2024/03/29 11:41:18;;;;;;;0.00;0.00;;;;;;;14.73;77.20;97380.13;4803374;29;20154;-74
2024/03/29 11:43:44;;;;;;;0.00;0.00;;;;;;;14.62;83.39;97387.41;4827393;29;20057;-76
2024/03/29 11:46:12;;;;;;;0.10;0.10;;;;;;;14.04;81.14;97397.34;4823559;29;20061;-75
2024/03/29 11:48:38;;;;;;;0.00;0.00;;;;;;;13.29;84.43;97423.97;4803872;29;20037;-75
2024/03/29 11:51:06;;;;;;;0.00;0.00;;;;;;;12.66;88.84;97398.22;4842969;29;20053;-74
2024/03/29 11:53:32;;;;;;;0.00;0.00;;;;;;;12.66;94.09;97408.34;4799947;29;20057;-74
2024/03/29 11:55:59;;;;;;;0.10;0.10;;;;;;;13.02;97.22;97442.94;4835635;29;20038;-76
2024/03/29 11:58:26;;;;;;;0.00;0.00;;;;;;;13.29;92.15;97413.00;4830667;29;20041;-75
2024/03/29 12:00:53;;;;;;;0.10;0.10;;;;;;;13.20;92.89;97390.44;4817308;29;20136;-74
2024/03/29 12:03:21;;;;;;;0.00;0.00;;;;;;;13.16;92.25;97422.50;4813865;29;20034;-75
2024/03/29 12:05:49;;;;;;;0.10;0.10;;;;;;;12.66;97.14;97431.09;4820885;29;20094;-75
2024/03/29 12:08:14;;;;;;;0.10;0.10;;;;;;;11.65;99.19;97458.44;4814787;29;20378;-76
2024/03/29 12:10:43;;;;;;;0.00;0.00;;;;;;;11.05;100.00;97449.16;4817006;29;20067;-75
2024/03/29 12:13:11;;;;;;;0.00;0.00;;;;;;;12.59;100.00;97436.41;4836773;29;20652;-74
2024/03/29 12:15:41;;;;;;;0.00;0.00;;;;;;;14.39;100.00;97434.91;4818137;29;20665;-76
2024/03/29 12:18:07;;;;;;;0.00;0.00;;;;;;;17.07;89.47;97423.56;4830050;29;20034;-74